Time;durP1;ratioP1;P1;durP2;ratioP2;P2;SDS_P1;SDS_P2;PMS_P1;PMS_P2;Temp;Humidity;BMP_temperature;BMP_pressure;BME280_temperature;BME280_humidity;BME280_pressure;Samples;Min_cycle;Max_cycle;Signal;HPM_P1;HPM_P2
2023/06/08 00:01:57;;;;;;;;;6.75;6.75;;;;;;;;5070650;28;9005;-73
2023/06/08 00:04:22;;;;;;;;;8.00;6.75;;;;;;;;5070615;28;8882;-73
2023/06/08 00:06:49;;;;;;;;;7.25;6.75;;;;;;;;5068469;28;8852;-72
2023/06/08 00:09:15;;;;;;;;;7.25;6.50;;;;;;;;5070376;28;8780;-73
2023/06/08 00:11:41;;;;;;;;;6.50;6.00;;;;;;;;5070232;28;9990;-73
2023/06/08 00:14:06;;;;;;;;;4.00;4.00;;;;;;;;5070152;28;9690;-72
2023/06/08 00:16:33;;;;;;;;;4.00;4.00;;;;;;;;5070270;28;8784;-72
2023/06/08 00:19:00;;;;;;;;;7.00;4.00;;;;;;;;5070355;28;8926;-73
2023/06/08 00:21:26;;;;;;;;;8.00;7.50;;;;;;;;5070030;28;9961;-73
2023/06/08 00:23:51;;;;;;;;;5.75;5.75;;;;;;;;5069411;28;9976;-73
2023/06/08 00:26:17;;;;;;;;;8.50;6.50;;;;;;;;5069913;28;10214;-73
2023/06/08 00:28:42;;;;;;;;;6.75;6.00;;;;;;;;5069923;28;8819;-74
2023/06/08 00:31:07;;;;;;;;;9.00;7.00;;;;;;;;5068834;28;9559;-72
2023/06/08 00:33:34;;;;;;;;;7.25;7.25;;;;;;;;5068540;28;8800;-74
2023/06/08 00:36:00;;;;;;;;;8.00;6.50;;;;;;;;5069873;28;8852;-73
2023/06/08 00:38:26;;;;;;;;;8.50;7.25;;;;;;;;5069153;28;10957;-73
2023/06/08 00:40:51;;;;;;;;;6.50;6.50;;;;;;;;5069164;28;10205;-73
2023/06/08 00:43:16;;;;;;;;;6.00;6.00;;;;;;;;5069518;28;8799;-72
2023/06/08 00:45:41;;;;;;;;;7.75;7.50;;;;;;;;5069681;28;8873;-72
2023/06/08 00:48:07;;;;;;;;;9.50;7.25;;;;;;;;5069766;28;8842;-73
2023/06/08 00:50:32;;;;;;;;;8.00;8.00;;;;;;;;5069677;28;8796;-73
2023/06/08 00:52:58;;;;;;;;;10.00;6.75;;;;;;;;5069446;28;8968;-73
2023/06/08 00:55:24;;;;;;;;;7.00;7.00;;;;;;;;5069184;28;8808;-73
2023/06/08 00:57:50;;;;;;;;;10.00;8.00;;;;;;;;5067813;28;8821;-74
2023/06/08 01:00:16;;;;;;;;;8.50;8.50;;;;;;;;5069601;28;10266;-73
2023/06/08 01:02:41;;;;;;;;;8.00;7.00;;;;;;;;5068175;28;11413;-72
2023/06/08 01:05:07;;;;;;;;;10.00;8.25;;;;;;;;5069068;28;8945;-74
2023/06/08 01:07:48;;;;;;;;;9.00;8.00;;;;;;;;5069243;28;8785;-73
2023/06/08 01:10:46;;;;;;;;;7.00;7.00;;;;;;;;5067928;28;11551;-72
2023/06/08 01:13:11;;;;;;;;;7.50;7.00;;;;;;;;5006511;28;10333;-73
2023/06/08 01:15:42;;;;;;;;;6.00;6.00;;;;;;;;5007005;28;9998;-73
2023/06/08 01:18:08;;;;;;;;;8.00;7.00;;;;;;;;5007117;28;8826;-72
2023/06/08 01:20:52;;;;;;;;;6.75;6.25;;;;;;;;5007324;28;9997;-73
2023/06/08 01:23:34;;;;;;;;;7.25;6.50;;;;;;;;5006615;28;11626;-73
2023/06/08 01:26:00;;;;;;;;;5.75;5.75;;;;;;;;4990347;28;10798;-74
2023/06/08 01:28:28;;;;;;;;;5.00;5.00;;;;;;;;5006812;28;10058;-72
2023/06/08 01:30:56;;;;;;;;;7.00;7.00;;;;;;;;5006264;28;9972;-72
2023/06/08 01:33:23;;;;;;;;;6.25;5.50;;;;;;;;5006811;28;9985;-72
2023/06/08 01:35:56;;;;;;;;;8.00;6.25;;;;;;;;5006851;28;10131;-73
2023/06/08 01:38:27;;;;;;;;;6.00;6.00;;;;;;;;5006697;28;9959;-73
2023/06/08 01:40:55;;;;;;;;;7.75;6.00;;;;;;;;5006789;28;10049;-73
2023/06/08 01:43:23;;;;;;;;;8.00;6.25;;;;;;;;4990244;28;10860;-73
2023/06/08 01:45:51;;;;;;;;;6.25;6.25;;;;;;;;5006887;28;10064;-73
2023/06/08 01:48:19;;;;;;;;;8.25;8.00;;;;;;;;5024189;28;10123;-72
2023/06/08 01:50:45;;;;;;;;;9.00;7.50;;;;;;;;5071105;28;10037;-73
2023/06/08 01:53:11;;;;;;;;;6.75;6.75;;;;;;;;5073098;28;9992;-73
2023/06/08 01:55:36;;;;;;;;;7.75;6.50;;;;;;;;5073002;28;8811;-73
2023/06/08 01:58:02;;;;;;;;;8.00;8.00;;;;;;;;5072609;28;8847;-74
2023/06/08 02:00:27;;;;;;;;;8.00;7.00;;;;;;;;5071581;28;8871;-72
2023/06/08 02:02:52;;;;;;;;;6.75;6.75;;;;;;;;5072790;28;8844;-74
2023/06/08 02:05:18;;;;;;;;;7.75;7.00;;;;;;;;5072955;28;8812;-74
2023/06/08 02:07:43;;;;;;;;;11.75;8.00;;;;;;;;5072070;28;8800;-71
2023/06/08 02:10:09;;;;;;;;;7.00;7.00;;;;;;;;5072893;28;8878;-71
2023/06/08 02:12:35;;;;;;;;;7.00;4.25;;;;;;;;5072455;28;8900;-73
2023/06/08 02:15:00;;;;;;;;;7.00;7.00;;;;;;;;5072391;28;10245;-71
2023/06/08 02:17:27;;;;;;;;;8.00;7.00;;;;;;;;5072611;28;8781;-72
2023/06/08 02:19:56;;;;;;;;;9.00;6.00;;;;;;;;5072691;28;8818;-72
2023/06/08 02:22:21;;;;;;;;;7.25;7.00;;;;;;;;5072348;28;10012;-72
2023/06/08 02:24:49;;;;;;;;;7.50;6.75;;;;;;;;5071884;28;10156;-72
2023/06/08 02:27:16;;;;;;;;;7.50;6.50;;;;;;;;5071142;28;8811;-73
2023/06/08 02:29:41;;;;;;;;;7.00;7.00;;;;;;;;5072275;28;10283;-72
2023/06/08 02:32:07;;;;;;;;;11.00;7.00;;;;;;;;5072235;28;10310;-73
2023/06/08 02:34:33;;;;;;;;;12.00;7.75;;;;;;;;5072070;28;8842;-73
2023/06/08 02:36:58;;;;;;;;;8.50;8.00;;;;;;;;5070521;28;8792;-74
2023/06/08 02:39:23;;;;;;;;;7.75;4.00;;;;;;;;5072146;28;8877;-73
2023/06/08 02:41:49;;;;;;;;;9.00;7.50;;;;;;;;5070965;28;9533;-73
2023/06/08 02:44:14;;;;;;;;;11.00;8.50;;;;;;;;5070114;28;8877;-73
2023/06/08 02:46:39;;;;;;;;;6.50;6.50;;;;;;;;5070663;28;8811;-73
2023/06/08 02:49:05;;;;;;;;;11.75;6.00;;;;;;;;5072011;28;8965;-73
2023/06/08 02:51:30;;;;;;;;;11.00;8.00;;;;;;;;5071842;28;8892;-73
2023/06/08 02:53:56;;;;;;;;;12.00;7.75;;;;;;;;5070351;28;8815;-73
2023/06/08 02:56:21;;;;;;;;;10.25;8.00;;;;;;;;5071649;28;8768;-73
2023/06/08 02:58:47;;;;;;;;;8.00;6.75;;;;;;;;5071380;28;8824;-74
2023/06/08 03:01:14;;;;;;;;;7.00;7.00;;;;;;;;5069900;28;8984;-73
2023/06/08 03:03:43;;;;;;;;;6.25;6.25;;;;;;;;5071817;28;9573;-73
2023/06/08 03:06:09;;;;;;;;;6.50;6.50;;;;;;;;5071599;28;10270;-74
2023/06/08 03:08:36;;;;;;;;;8.25;7.00;;;;;;;;5071544;28;10333;-72
2023/06/08 03:11:01;;;;;;;;;8.00;7.00;;;;;;;;5071505;28;10310;-73
2023/06/08 03:13:27;;;;;;;;;6.75;6.00;;;;;;;;5071283;28;10387;-74
2023/06/08 03:15:52;;;;;;;;;8.00;8.00;;;;;;;;5069630;28;8824;-73
2023/06/08 03:18:18;;;;;;;;;7.25;7.25;;;;;;;;5070413;28;8939;-74
2023/06/08 03:20:44;;;;;;;;;12.50;9.50;;;;;;;;5071506;28;8814;-72
2023/06/08 03:23:09;;;;;;;;;8.50;8.25;;;;;;;;5071390;28;8812;-73
2023/06/08 03:25:36;;;;;;;;;8.25;7.25;;;;;;;;5070321;28;9527;-73
2023/06/08 03:28:02;;;;;;;;;7.00;7.00;;;;;;;;5071462;28;8788;-73
2023/06/08 03:30:28;;;;;;;;;8.50;8.00;;;;;;;;5071325;28;10502;-73
2023/06/08 03:32:54;;;;;;;;;8.00;7.00;;;;;;;;5069765;28;8820;-74
2023/06/08 03:35:19;;;;;;;;;7.75;6.75;;;;;;;;5070832;28;10649;-73
2023/06/08 03:37:44;;;;;;;;;8.50;8.50;;;;;;;;5069605;28;8800;-73
2023/06/08 03:40:10;;;;;;;;;7.00;7.00;;;;;;;;5071221;28;8861;-73
2023/06/08 03:42:35;;;;;;;;;8.00;7.00;;;;;;;;5071219;28;8961;-73
2023/06/08 03:45:00;;;;;;;;;9.50;7.25;;;;;;;;5070871;28;9553;-73
2023/06/08 03:47:26;;;;;;;;;7.25;6.50;;;;;;;;5070988;28;8934;-73
2023/06/08 03:49:52;;;;;;;;;9.00;9.00;;;;;;;;5070984;28;8815;-73
2023/06/08 03:52:18;;;;;;;;;12.00;9.50;;;;;;;;5070567;28;8808;-73
2023/06/08 03:54:43;;;;;;;;;9.50;7.25;;;;;;;;5070321;28;8939;-73
2023/06/08 03:57:10;;;;;;;;;11.00;8.75;;;;;;;;5070996;28;10644;-72
2023/06/08 03:59:36;;;;;;;;;8.25;7.50;;;;;;;;5069693;28;8804;-72
2023/06/08 04:02:01;;;;;;;;;8.50;8.50;;;;;;;;5069189;28;10658;-72
2023/06/08 04:04:29;;;;;;;;;9.50;8.25;;;;;;;;5070499;28;8792;-72
2023/06/08 04:06:54;;;;;;;;;10.25;8.50;;;;;;;;5070228;28;8796;-73
2023/06/08 04:09:20;;;;;;;;;10.50;10.00;;;;;;;;5070353;28;10424;-74
2023/06/08 04:11:45;;;;;;;;;11.00;10.00;;;;;;;;5072509;28;8776;-72
2023/06/08 04:14:10;;;;;;;;;10.25;9.25;;;;;;;;5069215;28;9565;-73
2023/06/08 04:16:36;;;;;;;;;10.00;10.00;;;;;;;;5070422;28;8807;-74
2023/06/08 04:19:02;;;;;;;;;10.50;9.75;;;;;;;;5053978;28;9609;-74
2023/06/08 04:21:27;;;;;;;;;8.75;8.75;;;;;;;;5049707;28;8860;-74
2023/06/08 04:23:52;;;;;;;;;9.00;9.00;;;;;;;;5049936;28;8823;-72
2023/06/08 04:26:17;;;;;;;;;11.00;9.75;;;;;;;;5050009;28;9812;-73
2023/06/08 04:28:44;;;;;;;;;10.50;9.75;;;;;;;;5049679;28;8829;-73
2023/06/08 04:31:09;;;;;;;;;10.50;10.25;;;;;;;;5049836;28;8795;-73
2023/06/08 04:33:34;;;;;;;;;9.75;8.75;;;;;;;;5049744;28;10614;-70
2023/06/08 04:35:59;;;;;;;;;11.00;10.00;;;;;;;;5060440;28;8828;-70
2023/06/08 04:38:27;;;;;;;;;10.25;9.75;;;;;;;;5069452;28;8785;-72
2023/06/08 04:40:53;;;;;;;;;14.25;10.75;;;;;;;;5069913;28;8780;-71
2023/06/08 04:43:20;;;;;;;;;10.75;10.25;;;;;;;;5048819;28;10831;-70
2023/06/08 04:45:47;;;;;;;;;8.75;7.25;;;;;;;;5046673;28;10590;-71
2023/06/08 04:48:13;;;;;;;;;12.50;9.00;;;;;;;;5049115;28;10638;-71
2023/06/08 04:50:45;;;;;;;;;11.25;10.75;;;;;;;;5048920;28;10821;-72
2023/06/08 04:53:11;;;;;;;;;10.50;9.25;;;;;;;;5049253;28;8787;-71
2023/06/08 04:55:37;;;;;;;;;9.75;9.00;;;;;;;;5049359;28;10798;-72
2023/06/08 04:58:02;;;;;;;;;11.00;10.00;;;;;;;;5049375;28;10569;-71
2023/06/08 05:00:27;;;;;;;;;11.75;9.00;;;;;;;;5049516;28;8813;-70
2023/06/08 05:02:52;;;;;;;;;11.50;11.50;;;;;;;;5049490;28;8891;-74
2023/06/08 05:05:18;;;;;;;;;13.00;9.50;;;;;;;;5055147;28;8816;-73
2023/06/08 05:07:43;;;;;;;;;9.00;9.00;;;;;;;;5048401;28;8904;-73
2023/06/08 05:10:08;;;;;;;;;9.00;7.25;;;;;;;;5049278;28;8896;-71
2023/06/08 05:12:34;;;;;;;;;9.75;9.75;;;;;;;;5049310;28;8783;-78
2023/06/08 05:15:00;;;;;;;;;13.00;9.25;;;;;;;;5049244;28;8849;-71
2023/06/08 05:17:25;;;;;;;;;13.25;11.00;;;;;;;;5048016;28;8819;-71
2023/06/08 05:19:51;;;;;;;;;10.75;10.25;;;;;;;;5047776;28;10870;-70
2023/06/08 05:22:16;;;;;;;;;11.50;11.25;;;;;;;;5049048;28;8806;-71
2023/06/08 05:24:41;;;;;;;;;11.75;11.75;;;;;;;;5045466;28;8847;-72
2023/06/08 05:27:07;;;;;;;;;12.25;11.00;;;;;;;;5049156;28;8845;-73
2023/06/08 05:29:32;;;;;;;;;10.00;8.00;;;;;;;;5049256;28;8811;-74
2023/06/08 05:31:57;;;;;;;;;11.50;11.25;;;;;;;;5049335;28;8837;-66
2023/06/08 05:34:23;;;;;;;;;12.75;12.75;;;;;;;;5049315;28;8826;-69
2023/06/08 05:36:49;;;;;;;;;13.25;10.00;;;;;;;;5066596;28;8847;-69
2023/06/08 05:39:15;;;;;;;;;13.00;12.00;;;;;;;;5047708;28;10773;-67
2023/06/08 05:41:40;;;;;;;;;14.75;13.00;;;;;;;;5047539;28;8831;-68
2023/06/08 05:44:05;;;;;;;;;9.50;9.50;;;;;;;;5049130;28;8823;-71
2023/06/08 05:46:30;;;;;;;;;15.50;12.00;;;;;;;;5048758;28;9505;-67
2023/06/08 05:48:56;;;;;;;;;13.25;11.00;;;;;;;;5049232;28;8830;-68
2023/06/08 05:51:21;;;;;;;;;10.50;9.75;;;;;;;;5048695;28;9545;-75
2023/06/08 05:53:46;;;;;;;;;8.75;8.00;;;;;;;;5048511;28;8819;-71
2023/06/08 05:56:13;;;;;;;;;11.00;10.75;;;;;;;;5049008;28;8794;-73
2023/06/08 05:58:38;;;;;;;;;12.00;12.00;;;;;;;;5047292;28;9589;-77
2023/06/08 06:01:04;;;;;;;;;11.00;10.25;;;;;;;;5046308;28;10614;-68
2023/06/08 06:03:30;;;;;;;;;14.75;10.50;;;;;;;;5048809;28;8803;-68
2023/06/08 06:05:55;;;;;;;;;12.75;12.50;;;;;;;;5059961;28;11574;-69
2023/06/08 06:08:20;;;;;;;;;13.00;11.00;;;;;;;;5068639;28;8773;-69
2023/06/08 06:10:46;;;;;;;;;16.25;13.25;;;;;;;;5069139;28;8947;-69
2023/06/08 06:13:11;;;;;;;;;12.75;12.00;;;;;;;;5068825;28;8792;-68
2023/06/08 06:15:36;;;;;;;;;14.50;11.25;;;;;;;;5054853;28;8842;-69
2023/06/08 06:18:01;;;;;;;;;11.00;11.00;;;;;;;;5048186;28;8760;-68
2023/06/08 06:20:29;;;;;;;;;11.00;9.00;;;;;;;;5048286;28;9644;-69
2023/06/08 06:22:55;;;;;;;;;10.00;10.00;;;;;;;;5047925;28;8853;-69
2023/06/08 06:25:21;;;;;;;;;12.25;11.25;;;;;;;;5047819;28;10565;-68
2023/06/08 06:27:46;;;;;;;;;16.50;14.50;;;;;;;;5048282;28;8814;-68
2023/06/08 06:30:12;;;;;;;;;20.50;19.75;;;;;;;;5047590;28;12033;-68
2023/06/08 06:32:37;;;;;;;;;18.75;16.25;;;;;;;;5046520;28;8888;-68
2023/06/08 06:35:02;;;;;;;;;17.75;17.25;;;;;;;;5050178;28;8836;-68
2023/06/08 06:37:34;;;;;;;;;14.00;13.00;;;;;;;;5066946;28;9651;-67
2023/06/08 06:39:59;;;;;;;;;2.25;1.00;;;;;;;;5070067;28;8792;-68
2023/06/08 06:42:25;;;;;;;;;10.50;10.00;;;;;;;;5070257;28;10392;-69
2023/06/08 06:44:50;;;;;;;;;13.00;12.50;;;;;;;;5065101;28;8815;-68
2023/06/08 06:47:15;;;;;;;;;15.50;14.50;;;;;;;;5052486;28;8795;-70
2023/06/08 06:49:41;;;;;;;;;18.00;13.75;;;;;;;;5052102;28;8968;-71
2023/06/08 06:52:06;;;;;;;;;12.00;12.00;;;;;;;;5051984;28;8799;-69
2023/06/08 06:54:32;;;;;;;;;12.75;11.25;;;;;;;;5049968;28;8839;-68
2023/06/08 06:59:26;;;;;;;;;11.75;9.75;;;;;;;;5049694;28;10509;-80
2023/06/08 07:01:57;;;;;;;;;17.75;17.75;;;;;;;;5053048;28;10455;-79
2023/06/08 07:04:22;;;;;;;;;17.75;16.25;;;;;;;;5053074;28;10591;-79
2023/06/08 07:06:50;;;;;;;;;20.50;19.25;;;;;;;;5052668;28;11293;-80
2023/06/08 07:09:16;;;;;;;;;14.50;13.75;;;;;;;;5052494;28;8956;-80
2023/06/08 07:11:44;;;;;;;;;18.75;17.00;;;;;;;;5053240;28;10053;-75
2023/06/08 07:14:09;;;;;;;;;13.50;13.50;;;;;;;;5052405;28;10270;-76
2023/06/08 07:16:35;;;;;;;;;14.00;13.25;;;;;;;;5034385;28;10841;-74
2023/06/08 07:19:00;;;;;;;;;13.00;11.00;;;;;;;;5052476;28;8807;-78
2023/06/08 07:21:25;;;;;;;;;12.50;11.25;;;;;;;;5034633;28;8842;-79
2023/06/08 07:24:00;;;;;;;;;16.00;13.00;;;;;;;;5051814;28;8903;-77
2023/06/08 07:26:26;;;;;;;;;11.75;11.75;;;;;;;;5049180;28;8798;-76
2023/06/08 07:28:54;;;;;;;;;14.75;14.00;;;;;;;;5051848;28;9847;-77
2023/06/08 07:31:20;;;;;;;;;11.75;11.00;;;;;;;;5034029;28;8892;-72
2023/06/08 07:33:45;;;;;;;;;11.00;11.00;;;;;;;;5051924;28;9672;-77
2023/06/08 07:36:20;;;;;;;;;15.00;14.00;;;;;;;;5033969;28;9593;-82
2023/06/08 07:38:56;;;;;;;;;15.75;13.25;;;;;;;;5034166;28;8818;-80
2023/06/08 07:41:21;;;;;;;;;16.50;11.75;;;;;;;;5052487;28;9528;-77
2023/06/08 07:43:47;;;;;;;;;11.67;10.00;;;;;;;;5034165;28;9432;-76
2023/06/08 07:46:12;;;;;;;;;11.00;11.00;;;;;;;;5052222;28;8798;-77
2023/06/08 07:48:38;;;;;;;;;10.00;9.33;;;;;;;;5033569;28;9439;-78
2023/06/08 07:51:03;;;;;;;;;14.00;13.00;;;;;;;;5034141;28;8818;-75
2023/06/08 07:53:34;;;;;;;;;10.00;10.00;;;;;;;;5051459;28;8794;-76
2023/06/08 07:55:59;;;;;;;;;14.00;11.33;;;;;;;;5033830;28;8826;-76
2023/06/08 07:58:24;;;;;;;;;20.67;19.67;;;;;;;;5077330;22;9111;-78
2023/06/08 08:00:50;;;;;;;;;11.00;11.00;;;;;;;;5070808;28;8822;-75
2023/06/08 08:03:15;;;;;;;;;17.00;13.00;;;;;;;;5070771;28;9549;-78
2023/06/08 08:05:40;;;;;;;;;10.00;10.00;;;;;;;;5081751;28;8888;-79
2023/06/08 08:08:06;;;;;;;;;12.33;12.00;;;;;;;;5089981;28;8820;-78
2023/06/08 08:10:34;;;;;;;;;12.33;12.00;;;;;;;;5090827;28;8796;-80
2023/06/08 08:12:59;;;;;;;;;12.00;10.25;;;;;;;;5092089;28;8804;-78
2023/06/08 08:15:26;;;;;;;;;10.00;10.00;;;;;;;;5091002;28;8846;-81
2023/06/08 08:17:51;;;;;;;;;10.25;10.25;;;;;;;;5091854;28;8788;-80
2023/06/08 08:20:17;;;;;;;;;17.67;15.33;;;;;;;;5092087;28;8796;-80
2023/06/08 08:23:02;;;;;;;;;11.00;11.00;;;;;;;;5090348;28;8815;-80
2023/06/08 08:25:33;;;;;;;;;8.75;8.75;;;;;;;;5090680;28;8827;-80
2023/06/08 08:27:58;;;;;;;;;12.50;11.25;;;;;;;;5091780;28;8819;-80
2023/06/08 08:30:23;;;;;;;;;14.33;14.33;;;;;;;;5091875;28;8784;-80
2023/06/08 08:32:49;;;;;;;;;15.33;14.67;;;;;;;;5090259;28;8803;-80
2023/06/08 08:35:15;;;;;;;;;10.67;9.67;;;;;;;;5085872;28;8812;-80
2023/06/08 08:37:42;;;;;;;;;13.00;11.67;;;;;;;;5069874;28;8991;-80
2023/06/08 08:40:08;;;;;;;;;13.00;11.75;;;;;;;;5071229;28;8799;-80
2023/06/08 08:42:37;;;;;;;;;13.00;13.00;;;;;;;;5071370;28;9591;-80
2023/06/08 08:45:06;;;;;;;;;11.75;10.75;;;;;;;;5070663;28;8949;-80
2023/06/08 08:47:32;;;;;;;;;11.67;10.67;;;;;;;;5071370;28;9486;-80
2023/06/08 08:50:04;;;;;;;;;15.33;14.00;;;;;;;;5071159;28;8871;-79
2023/06/08 08:52:33;;;;;;;;;12.25;11.00;;;;;;;;5069501;28;8814;-78
2023/06/08 08:55:02;;;;;;;;;10.75;10.75;;;;;;;;5071363;28;8779;-79
2023/06/08 08:57:28;;;;;;;;;11.25;11.25;;;;;;;;5071342;28;8819;-79
2023/06/08 08:59:54;;;;;;;;;10.33;10.33;;;;;;;;5070458;28;9618;-79
2023/06/08 09:02:20;;;;;;;;;11.75;10.00;;;;;;;;5070309;28;8795;-79
2023/06/08 09:04:45;;;;;;;;;10.00;9.00;;;;;;;;5070882;28;8925;-79
2023/06/08 09:07:10;;;;;;;;;7.00;6.33;;;;;;;;5069314;28;8826;-79
2023/06/08 09:09:35;;;;;;;;;11.00;9.33;;;;;;;;5070907;28;8816;-79
2023/06/08 09:12:03;;;;;;;;;8.00;8.00;;;;;;;;5071038;28;8779;-79
2023/06/08 09:14:29;;;;;;;;;14.25;11.50;;;;;;;;5069474;28;8786;-79
2023/06/08 09:17:01;;;;;;;;;12.67;11.00;;;;;;;;5070778;28;8817;-79
2023/06/08 09:19:27;;;;;;;;;5.00;4.00;;;;;;;;5069444;28;9655;-80
2023/06/08 09:21:52;;;;;;;;;7.00;7.00;;;;;;;;5070157;28;8786;-79
2023/06/08 09:24:20;;;;;;;;;10.67;8.00;;;;;;;;5070564;28;8821;-79
2023/06/08 09:26:53;;;;;;;;;10.00;9.00;;;;;;;;5070730;28;9513;-79
2023/06/08 09:29:39;;;;;;;;;13.75;9.75;;;;;;;;5069366;28;8810;-79
2023/06/08 09:32:09;;;;;;;;;9.00;9.00;;;;;;;;5069263;28;8825;-79
2023/06/08 09:34:55;;;;;;;;;12.75;10.00;;;;;;;;5070738;28;8799;-80
2023/06/08 09:37:31;;;;;;;;;9.00;9.00;;;;;;;;5089380;28;9745;-79
2023/06/08 09:39:56;;;;;;;;;10.25;9.50;;;;;;;;5090719;28;8887;-79
2023/06/08 09:42:21;;;;;;;;;11.33;11.00;;;;;;;;5090099;28;8989;-79
2023/06/08 09:44:47;;;;;;;;;14.00;13.00;;;;;;;;5090850;28;8792;-76
2023/06/08 09:47:21;;;;;;;;;13.00;12.00;;;;;;;;5090577;28;9507;-77
2023/06/08 09:49:46;;;;;;;;;10.75;9.75;;;;;;;;5071884;28;8852;-74
2023/06/08 09:52:12;;;;;;;;;12.00;10.00;;;;;;;;5070063;28;8915;-76
2023/06/08 09:54:45;;;;;;;;;9.00;9.00;;;;;;;;5070232;28;9533;-75
2023/06/08 09:57:11;;;;;;;;;17.50;14.75;;;;;;;;5070012;28;8811;-76
2023/06/08 09:59:37;;;;;;;;;12.25;9.25;;;;;;;;5067968;28;8806;-76
2023/06/08 10:02:16;;;;;;;;;12.50;11.75;;;;;;;;5069829;28;8806;-75
2023/06/08 10:04:44;;;;;;;;;11.00;9.25;;;;;;;;5069867;28;8814;-80
2023/06/08 10:07:23;;;;;;;;;17.25;16.00;;;;;;;;5068753;28;8819;-77
2023/06/08 10:09:49;;;;;;;;;10.75;9.75;;;;;;;;5069996;28;8787;-80
2023/06/08 10:12:14;;;;;;;;;12.00;10.67;;;;;;;;5073238;28;8893;-79
2023/06/08 10:14:40;;;;;;;;;10.00;10.00;;;;;;;;5072238;28;8912;-79
2023/06/08 10:17:09;;;;;;;;;13.00;11.75;;;;;;;;5072967;28;8798;-78
2023/06/08 10:19:35;;;;;;;;;11.50;11.50;;;;;;;;5072470;28;9568;-78
2023/06/08 10:22:04;;;;;;;;;9.75;9.75;;;;;;;;5073667;28;8826;-80
2023/06/08 10:24:30;;;;;;;;;10.50;9.25;;;;;;;;5072531;28;9213;-76
2023/06/08 10:27:09;;;;;;;;;9.00;9.00;;;;;;;;5072580;28;8837;-75
2023/06/08 10:29:37;;;;;;;;;8.50;7.00;;;;;;;;5072529;28;8802;-75
2023/06/08 10:32:10;;;;;;;;;9.75;9.25;;;;;;;;5073525;28;8786;-75
2023/06/08 10:34:44;;;;;;;;;9.25;8.00;;;;;;;;5071536;28;8834;-74
2023/06/08 10:37:27;;;;;;;;;10.50;9.50;;;;;;;;5072337;28;9931;-75
2023/06/08 10:39:52;;;;;;;;;14.00;12.00;;;;;;;;5073646;28;8840;-74
2023/06/08 10:42:20;;;;;;;;;10.00;10.00;;;;;;;;5073515;28;9564;-74
2023/06/08 10:44:53;;;;;;;;;7.75;7.75;;;;;;;;5072877;28;8853;-75
2023/06/08 10:47:18;;;;;;;;;17.50;13.75;;;;;;;;5072055;28;9662;-75
2023/06/08 10:49:56;;;;;;;;;10.67;10.00;;;;;;;;5072375;28;8795;-73
2023/06/08 10:52:21;;;;;;;;;10.75;10.75;;;;;;;;5072624;28;8803;-74
2023/06/08 10:54:52;;;;;;;;;10.33;10.33;;;;;;;;5072471;28;8818;-74
2023/06/08 10:57:37;;;;;;;;;9.50;9.00;;;;;;;;5071393;28;8818;-74
2023/06/08 11:00:23;;;;;;;;;7.50;7.50;;;;;;;;5071944;28;8787;-75
2023/06/08 11:02:49;;;;;;;;;8.00;8.00;;;;;;;;5058868;28;8905;-75
2023/06/08 11:05:15;;;;;;;;;8.00;8.00;;;;;;;;5072839;28;9003;-75
2023/06/08 11:07:41;;;;;;;;;8.50;7.25;;;;;;;;5071209;28;11506;-75
2023/06/08 11:10:06;;;;;;;;;5.00;5.00;;;;;;;;5072478;28;8893;-74
2023/06/08 11:12:34;;;;;;;;;8.67;8.67;;;;;;;;5072574;28;8880;-74
2023/06/08 11:15:00;;;;;;;;;8.25;7.75;;;;;;;;5072732;28;8927;-75
2023/06/08 11:17:26;;;;;;;;;9.00;9.00;;;;;;;;5072958;28;8802;-74
2023/06/08 11:19:51;;;;;;;;;8.00;8.00;;;;;;;;5071132;28;8814;-80
2023/06/08 11:22:17;;;;;;;;;7.00;7.00;;;;;;;;5071936;28;8779;-76
2023/06/08 11:24:43;;;;;;;;;7.33;7.33;;;;;;;;5071845;28;8920;-76
2023/06/08 11:27:15;;;;;;;;;8.75;8.50;;;;;;;;5071734;28;8782;-76
2023/06/08 11:29:40;;;;;;;;;8.00;7.75;;;;;;;;5071607;28;8810;-76
2023/06/08 11:32:09;;;;;;;;;6.00;6.00;;;;;;;;5071463;28;8867;-76
2023/06/08 11:34:36;;;;;;;;;11.25;10.50;;;;;;;;5071719;28;8810;-77
2023/06/08 11:37:01;;;;;;;;;10.75;9.00;;;;;;;;5070167;28;9551;-77
2023/06/08 11:39:32;;;;;;;;;7.33;7.33;;;;;;;;5072768;28;8794;-77
2023/06/08 11:41:57;;;;;;;;;6.75;6.75;;;;;;;;5072578;28;8775;-77
2023/06/08 11:44:25;;;;;;;;;7.33;7.33;;;;;;;;5072511;28;9655;-77
2023/06/08 11:46:51;;;;;;;;;9.00;9.00;;;;;;;;5072453;28;8806;-77
2023/06/08 11:49:16;;;;;;;;;6.33;6.33;;;;;;;;5071981;28;8821;-77
2023/06/08 11:51:46;;;;;;;;;9.33;9.33;;;;;;;;5070924;28;8825;-77
2023/06/08 11:54:11;;;;;;;;;8.25;8.25;;;;;;;;5072084;28;8831;-77
2023/06/08 11:56:41;;;;;;;;;5.33;5.33;;;;;;;;5071075;28;8814;-77
2023/06/08 11:59:06;;;;;;;;;8.00;6.00;;;;;;;;5072678;28;8802;-77
2023/06/08 12:01:32;;;;;;;;;8.00;7.00;;;;;;;;5072235;28;8897;-77
2023/06/08 12:03:57;;;;;;;;;8.00;7.00;;;;;;;;5072296;28;8822;-77
2023/06/08 12:06:29;;;;;;;;;7.33;7.33;;;;;;;;5071394;28;8826;-77
2023/06/08 12:08:58;;;;;;;;;8.00;7.50;;;;;;;;5070777;28;8826;-77
2023/06/08 12:11:24;;;;;;;;;4.00;4.00;;;;;;;;5070673;28;8829;-77
2023/06/08 12:13:53;;;;;;;;;4.00;2.00;;;;;;;;5070529;28;8815;-76
2023/06/08 12:16:21;;;;;;;;;5.00;5.00;;;;;;;;5071963;28;8770;-77
2023/06/08 12:18:53;;;;;;;;;3.75;3.75;;;;;;;;5071772;28;8782;-77
2023/06/08 12:21:19;;;;;;;;;5.75;5.75;;;;;;;;5071835;28;8774;-77
2023/06/08 12:23:44;;;;;;;;;6.25;6.25;;;;;;;;5069695;28;8811;-77
2023/06/08 12:26:19;;;;;;;;;6.00;5.00;;;;;;;;5071885;28;8846;-77
2023/06/08 12:28:45;;;;;;;;;7.00;7.00;;;;;;;;5071635;28;8813;-77
2023/06/08 12:31:13;;;;;;;;;4.33;4.33;;;;;;;;5071427;28;8814;-77
2023/06/08 12:33:43;;;;;;;;;8.25;5.00;;;;;;;;5071050;28;8913;-77
2023/06/08 12:36:10;;;;;;;;;5.00;5.00;;;;;;;;5069511;28;8821;-77
2023/06/08 12:38:35;;;;;;;;;5.00;5.00;;;;;;;;5071242;28;8826;-77
2023/06/08 12:41:01;;;;;;;;;5.00;5.00;;;;;;;;5071321;28;8791;-77
2023/06/08 12:43:26;;;;;;;;;6.00;6.00;;;;;;;;5070879;28;8825;-77
2023/06/08 12:46:01;;;;;;;;;5.00;5.00;;;;;;;;5070044;28;8935;-77
2023/06/08 12:48:28;;;;;;;;;7.25;7.00;;;;;;;;5071308;28;8870;-77
2023/06/08 12:50:57;;;;;;;;;5.75;5.00;;;;;;;;5071153;28;8809;-77
2023/06/08 12:53:25;;;;;;;;;10.00;7.50;;;;;;;;5071032;28;8778;-77
2023/06/08 12:55:51;;;;;;;;;8.50;5.25;;;;;;;;5071150;28;8818;-79
2023/06/08 12:58:17;;;;;;;;;5.33;5.00;;;;;;;;5070096;28;8845;-78
2023/06/08 13:00:44;;;;;;;;;3.00;3.00;;;;;;;;5070909;28;8876;-78
2023/06/08 13:03:10;;;;;;;;;4.00;3.75;;;;;;;;5069751;28;9537;-79
2023/06/08 13:05:36;;;;;;;;;7.00;5.00;;;;;;;;5070714;28;8846;-77
2023/06/08 13:08:06;;;;;;;;;5.25;5.25;;;;;;;;5070779;28;8775;-77
2023/06/08 13:10:31;;;;;;;;;5.00;5.00;;;;;;;;5069473;28;8830;-78
2023/06/08 13:12:56;;;;;;;;;5.33;5.33;;;;;;;;5070798;28;8798;-78
2023/06/08 13:15:22;;;;;;;;;4.67;4.67;;;;;;;;5070784;28;8807;-77
2023/06/08 13:17:47;;;;;;;;;4.33;4.33;;;;;;;;5070645;28;8856;-77
2023/06/08 13:20:13;;;;;;;;;5.67;5.00;;;;;;;;5070509;28;9528;-77
2023/06/08 13:22:38;;;;;;;;;8.67;6.67;;;;;;;;5069280;28;8802;-77
2023/06/08 13:25:05;;;;;;;;;5.33;5.33;;;;;;;;5070609;28;8834;-78
2023/06/08 13:27:30;;;;;;;;;7.25;6.00;;;;;;;;5069304;28;8825;-77
2023/06/08 13:29:55;;;;;;;;;4.67;4.67;;;;;;;;5070745;28;8810;-78
2023/06/08 13:32:21;;;;;;;;;4.00;4.00;;;;;;;;5069622;28;8806;-78
2023/06/08 13:34:46;;;;;;;;;6.00;6.00;;;;;;;;5070640;28;8814;-78
2023/06/08 13:37:12;;;;;;;;;6.00;5.00;;;;;;;;5070005;28;8791;-78
2023/06/08 13:39:39;;;;;;;;;5.33;5.33;;;;;;;;5070599;28;8856;-78
2023/06/08 13:42:05;;;;;;;;;7.25;6.25;;;;;;;;5070458;28;8806;-78
2023/06/08 13:44:31;;;;;;;;;7.33;6.00;;;;;;;;5069607;28;8842;-78
2023/06/08 13:46:56;;;;;;;;;6.00;5.00;;;;;;;;5070214;28;8783;-79
2023/06/08 13:49:23;;;;;;;;;8.00;6.67;;;;;;;;5070375;28;9006;-78
2023/06/08 13:51:48;;;;;;;;;7.25;7.00;;;;;;;;5070364;28;8888;-77
2023/06/08 13:54:15;;;;;;;;;9.00;9.00;;;;;;;;5069943;28;8818;-77
2023/06/08 13:56:41;;;;;;;;;7.75;7.00;;;;;;;;5070323;28;8803;-78
2023/06/08 13:59:06;;;;;;;;;8.00;7.00;;;;;;;;5070659;28;9497;-78
2023/06/08 14:01:32;;;;;;;;;8.33;7.67;;;;;;;;5068848;28;8814;-78
2023/06/08 14:03:57;;;;;;;;;5.67;5.67;;;;;;;;5070338;28;8806;-78
2023/06/08 14:06:22;;;;;;;;;7.33;6.00;;;;;;;;5068925;28;9910;-78
2023/06/08 14:08:48;;;;;;;;;9.33;7.00;;;;;;;;5070176;28;9664;-78
2023/06/08 14:11:16;;;;;;;;;6.00;6.00;;;;;;;;5069954;28;8795;-76
2023/06/08 14:13:50;;;;;;;;;5.00;5.00;;;;;;;;5069816;28;8825;-78
2023/06/08 14:16:15;;;;;;;;;6.00;6.00;;;;;;;;5070515;28;8786;-78
2023/06/08 14:18:41;;;;;;;;;6.67;6.67;;;;;;;;5070181;28;9603;-78
2023/06/08 14:21:07;;;;;;;;;5.00;5.00;;;;;;;;5070449;28;8889;-78
2023/06/08 14:23:33;;;;;;;;;8.75;7.25;;;;;;;;5070027;28;8787;-78
2023/06/08 14:25:59;;;;;;;;;6.25;6.25;;;;;;;;5070162;28;8826;-78
2023/06/08 14:28:33;;;;;;;;;7.33;7.33;;;;;;;;5070011;28;8913;-78
2023/06/08 14:31:04;;;;;;;;;7.50;7.50;;;;;;;;5070699;28;9482;-78
2023/06/08 14:33:30;;;;;;;;;7.25;7.25;;;;;;;;5070196;28;8787;-78
2023/06/08 14:35:55;;;;;;;;;8.00;8.00;;;;;;;;5068919;28;8845;-77
2023/06/08 14:38:24;;;;;;;;;8.00;7.00;;;;;;;;5068453;28;8810;-78
2023/06/08 14:40:52;;;;;;;;;6.00;5.25;;;;;;;;5069112;28;8810;-78
2023/06/08 14:43:17;;;;;;;;;7.25;7.25;;;;;;;;5070142;28;8932;-79
2023/06/08 14:45:45;;;;;;;;;8.33;7.00;;;;;;;;5069393;28;8826;-76
2023/06/08 14:48:13;;;;;;;;;4.00;4.00;;;;;;;;5069905;28;8806;-77